الصفحة الرئيسية
METAR-TAF:

METAR-TAF

مطار :

كوكشيتو, كازاخستان

دائرة عرض: 53-19-48N, خط طول: 069-35-48E, ارتفاع: 270 متر

مراقبة الطقس الحالي

تاريخ ووقت الإصدار 23 دقيقة قبل الساعة 04:00UTC
ريح 8 عقدة من الغرب/الجنوب الغربي
درجة الحرارة -6°درجة مئوية
الرطوبة 93%
ضغط 1016 hPa
الرؤية: 3000 متر
ملبد بالغيوم على ارتفاع 1100 قدم
ثلوج

METAR: UACK 240400Z 25004MPS 3000 SN OVC011 M06/M07 Q1016 R20/420245 NOSIG RMK QFE738/0985

زمن: 10:23 (04:23 UTC)

توقعات

تاريخ ووقت الإصدار 2ساعات و 23 دقيقة قبل الساعة 02:00UTC
التوقعات صالحة من24 الساعة 03 UTC إلى 24 الساعة 12 UTC
ريح 12 عقدة من الغرب/الجنوب الغربي
الرؤية: 6000 متر
غيوم مفككة على ارتفاع 1000 قدم
غيوم مفككة على ارتفاع 3000 قدم
ثلوج خفيفة, انخفاض الانجراف الثلوج
مؤقت
من 24 الساعة 03 UTC إلى 24 الساعة 12 UTC
ريح 17 عقدة من الغرب تتزايد حتى 27 عقدة
الرؤية: 2100 متر
غيوم متفرقة على ارتفاع 500 قدم
غيوم مفككة على ارتفاع 700 قدم, مزنة ركامية.
زخات ثلجية خفيفة, هبوب الثلوج

TAF: UACK 240200Z 2403/2412 24006MPS 6000 -SN DRSN BKN010 BKN030 TEMPO 2403/2412 27009G14MPS 2100 -SHSN BLSN SCT005 BKN007CB

أرصاد الطقس والتوقعات من أكثر من 4000 مطار (تقارير الطقس للمطار METAR والتنبؤ بالطقس بالمطارTAF).

المحطات المتاحة هي النقط الصفراء والحمراء على الخريطة.

حرك المؤشر فوق النقطة لمعرفة اسم المحطة.

ثم انقر لمعرفة أرصاد وتوقعات الطقس.

لتغيير الخارطة: اضغط على الأزرار الخضراء مع رمز الصليب الأسود للتكبير. على الزر الأخضر مع شرطة للتصغير، أو على الأسهم الخضراء للخرائط المجاورة.


METAR-TAF: